sensor_id;sensor_type;location;lat;lon;timestamp;P1;durP1;ratioP1;P2;durP2;ratioP2
58091;SDS011;43896;48.178;11.578;2023-08-06T00:01:59;4.38;;;2.78;;
58091;SDS011;43896;48.178;11.578;2023-08-06T00:04:24;6.57;;;3.47;;
58091;SDS011;43896;48.178;11.578;2023-08-06T00:06:49;4.95;;;3.30;;
58091;SDS011;43896;48.178;11.578;2023-08-06T00:09:15;5.25;;;3.08;;
58091;SDS011;43896;48.178;11.578;2023-08-06T00:11:40;4.65;;;3.08;;
58091;SDS011;43896;48.178;11.578;2023-08-06T00:14:06;5.53;;;3.58;;
58091;SDS011;43896;48.178;11.578;2023-08-06T00:16:31;5.45;;;3.28;;
58091;SDS011;43896;48.178;11.578;2023-08-06T00:18:57;5.43;;;3.40;;
58091;SDS011;43896;48.178;11.578;2023-08-06T00:21:22;5.75;;;3.13;;
58091;SDS011;43896;48.178;11.578;2023-08-06T00:23:47;6.65;;;3.47;;
58091;SDS011;43896;48.178;11.578;2023-08-06T00:26:13;5.70;;;3.33;;
58091;SDS011;43896;48.178;11.578;2023-08-06T00:28:38;5.15;;;3.17;;
58091;SDS011;43896;48.178;11.578;2023-08-06T00:31:03;6.63;;;3.42;;
58091;SDS011;43896;48.178;11.578;2023-08-06T00:33:29;5.47;;;3.10;;
58091;SDS011;43896;48.178;11.578;2023-08-06T00:35:54;6.57;;;3.47;;
58091;SDS011;43896;48.178;11.578;2023-08-06T00:38:19;6.30;;;3.00;;
58091;SDS011;43896;48.178;11.578;2023-08-06T00:40:45;6.25;;;3.42;;
58091;SDS011;43896;48.178;11.578;2023-08-06T00:43:10;5.20;;;3.08;;
58091;SDS011;43896;48.178;11.578;2023-08-06T00:45:36;4.90;;;2.90;;
58091;SDS011;43896;48.178;11.578;2023-08-06T00:48:02;5.20;;;2.60;;
58091;SDS011;43896;48.178;11.578;2023-08-06T00:50:30;4.22;;;2.40;;
58091;SDS011;43896;48.178;11.578;2023-08-06T00:52:55;4.82;;;2.50;;
58091;SDS011;43896;48.178;11.578;2023-08-06T00:55:21;4.40;;;2.60;;
58091;SDS011;43896;48.178;11.578;2023-08-06T00:57:47;3.92;;;2.20;;
58091;SDS011;43896;48.178;11.578;2023-08-06T01:00:13;5.13;;;2.20;;
58091;SDS011;43896;48.178;11.578;2023-08-06T01:02:38;4.15;;;2.30;;
58091;SDS011;43896;48.178;11.578;2023-08-06T01:05:04;4.40;;;2.50;;
58091;SDS011;43896;48.178;11.578;2023-08-06T01:10:05;4.53;;;2.75;;
58091;SDS011;43896;48.178;11.578;2023-08-06T01:15:35;6.00;;;2.60;;
58091;SDS011;43896;48.178;11.578;2023-08-06T01:18:06;5.05;;;2.75;;
58091;SDS011;43896;48.178;11.578;2023-08-06T01:20:32;5.78;;;2.80;;
58091;SDS011;43896;48.178;11.578;2023-08-06T01:22:58;5.30;;;2.55;;
58091;SDS011;43896;48.178;11.578;2023-08-06T01:25:25;5.88;;;2.65;;
58091;SDS011;43896;48.178;11.578;2023-08-06T01:28:00;5.45;;;2.88;;
58091;SDS011;43896;48.178;11.578;2023-08-06T01:30:32;4.43;;;2.60;;
58091;SDS011;43896;48.178;11.578;2023-08-06T01:33:03;5.43;;;2.50;;
58091;SDS011;43896;48.178;11.578;2023-08-06T01:35:30;4.68;;;2.80;;
58091;SDS011;43896;48.178;11.578;2023-08-06T01:37:57;4.45;;;2.70;;
58091;SDS011;43896;48.178;11.578;2023-08-06T01:40:25;5.30;;;3.03;;
58091;SDS011;43896;48.178;11.578;2023-08-06T01:42:52;5.15;;;3.17;;
58091;SDS011;43896;48.178;11.578;2023-08-06T01:45:17;5.35;;;3.13;;
58091;SDS011;43896;48.178;11.578;2023-08-06T01:47:42;5.47;;;3.20;;
58091;SDS011;43896;48.178;11.578;2023-08-06T01:50:08;5.75;;;3.20;;
58091;SDS011;43896;48.178;11.578;2023-08-06T01:52:33;5.25;;;3.03;;
58091;SDS011;43896;48.178;11.578;2023-08-06T01:54:59;4.60;;;2.72;;
58091;SDS011;43896;48.178;11.578;2023-08-06T01:57:24;5.88;;;2.80;;
58091;SDS011;43896;48.178;11.578;2023-08-06T01:59:50;5.45;;;3.13;;
58091;SDS011;43896;48.178;11.578;2023-08-06T02:02:15;5.10;;;3.10;;
58091;SDS011;43896;48.178;11.578;2023-08-06T02:04:40;5.65;;;2.88;;
58091;SDS011;43896;48.178;11.578;2023-08-06T02:07:06;5.07;;;2.95;;
58091;SDS011;43896;48.178;11.578;2023-08-06T02:09:31;4.45;;;2.72;;
58091;SDS011;43896;48.178;11.578;2023-08-06T02:11:57;5.03;;;3.08;;
58091;SDS011;43896;48.178;11.578;2023-08-06T02:14:22;5.40;;;3.00;;
58091;SDS011;43896;48.178;11.578;2023-08-06T02:16:47;5.90;;;2.90;;
58091;SDS011;43896;48.178;11.578;2023-08-06T02:19:13;5.07;;;3.03;;
58091;SDS011;43896;48.178;11.578;2023-08-06T02:21:38;4.22;;;2.78;;
58091;SDS011;43896;48.178;11.578;2023-08-06T02:24:04;5.43;;;2.72;;
58091;SDS011;43896;48.178;11.578;2023-08-06T02:26:29;4.85;;;2.60;;
58091;SDS011;43896;48.178;11.578;2023-08-06T02:28:55;5.68;;;2.75;;
58091;SDS011;43896;48.178;11.578;2023-08-06T02:31:20;5.30;;;2.90;;
58091;SDS011;43896;48.178;11.578;2023-08-06T02:33:45;4.95;;;2.53;;
58091;SDS011;43896;48.178;11.578;2023-08-06T02:36:11;5.75;;;2.60;;
58091;SDS011;43896;48.178;11.578;2023-08-06T02:38:36;4.82;;;2.60;;
58091;SDS011;43896;48.178;11.578;2023-08-06T02:41:02;4.20;;;2.50;;
58091;SDS011;43896;48.178;11.578;2023-08-06T02:43:28;5.03;;;2.38;;
58091;SDS011;43896;48.178;11.578;2023-08-06T02:45:56;4.15;;;2.30;;
58091;SDS011;43896;48.178;11.578;2023-08-06T02:48:23;4.30;;;2.23;;
58091;SDS011;43896;48.178;11.578;2023-08-06T02:50:48;4.78;;;2.55;;
58091;SDS011;43896;48.178;11.578;2023-08-06T02:53:13;5.07;;;2.60;;
58091;SDS011;43896;48.178;11.578;2023-08-06T02:55:44;5.30;;;2.40;;
58091;SDS011;43896;48.178;11.578;2023-08-06T02:58:11;3.97;;;2.15;;
58091;SDS011;43896;48.178;11.578;2023-08-06T03:00:37;3.78;;;2.20;;
58091;SDS011;43896;48.178;11.578;2023-08-06T03:03:02;4.47;;;2.30;;
58091;SDS011;43896;48.178;11.578;2023-08-06T03:05:27;4.68;;;2.40;;
58091;SDS011;43896;48.178;11.578;2023-08-06T03:07:53;5.20;;;2.28;;
58091;SDS011;43896;48.178;11.578;2023-08-06T03:10:18;6.03;;;2.75;;
58091;SDS011;43896;48.178;11.578;2023-08-06T03:12:44;6.13;;;2.10;;
58091;SDS011;43896;48.178;11.578;2023-08-06T03:15:10;4.18;;;1.90;;
58091;SDS011;43896;48.178;11.578;2023-08-06T03:17:35;3.88;;;1.98;;
58091;SDS011;43896;48.178;11.578;2023-08-06T03:20:01;3.67;;;2.20;;
58091;SDS011;43896;48.178;11.578;2023-08-06T03:22:26;4.45;;;2.10;;
58091;SDS011;43896;48.178;11.578;2023-08-06T03:24:51;3.85;;;1.95;;
58091;SDS011;43896;48.178;11.578;2023-08-06T03:27:17;3.80;;;2.10;;
58091;SDS011;43896;48.178;11.578;2023-08-06T03:29:42;4.57;;;2.00;;
58091;SDS011;43896;48.178;11.578;2023-08-06T03:32:08;4.13;;;2.10;;
58091;SDS011;43896;48.178;11.578;2023-08-06T03:34:33;4.13;;;1.70;;
58091;SDS011;43896;48.178;11.578;2023-08-06T03:36:58;3.67;;;1.85;;
58091;SDS011;43896;48.178;11.578;2023-08-06T03:39:24;5.55;;;1.88;;
58091;SDS011;43896;48.178;11.578;2023-08-06T03:41:49;3.65;;;1.90;;
58091;SDS011;43896;48.178;11.578;2023-08-06T03:44:14;3.65;;;1.80;;
58091;SDS011;43896;48.178;11.578;2023-08-06T03:46:39;5.93;;;2.17;;
58091;SDS011;43896;48.178;11.578;2023-08-06T03:49:05;4.10;;;2.00;;
58091;SDS011;43896;48.178;11.578;2023-08-06T03:51:30;3.83;;;2.00;;
58091;SDS011;43896;48.178;11.578;2023-08-06T03:53:55;3.13;;;1.70;;
58091;SDS011;43896;48.178;11.578;2023-08-06T03:56:21;4.55;;;1.90;;
58091;SDS011;43896;48.178;11.578;2023-08-06T03:58:46;3.80;;;1.90;;
58091;SDS011;43896;48.178;11.578;2023-08-06T04:01:11;3.80;;;1.95;;
58091;SDS011;43896;48.178;11.578;2023-08-06T04:03:37;3.65;;;1.70;;
58091;SDS011;43896;48.178;11.578;2023-08-06T04:06:02;3.90;;;2.00;;
58091;SDS011;43896;48.178;11.578;2023-08-06T04:08:28;4.22;;;2.00;;
58091;SDS011;43896;48.178;11.578;2023-08-06T04:10:54;3.53;;;1.80;;
58091;SDS011;43896;48.178;11.578;2023-08-06T04:13:19;4.28;;;1.80;;
58091;SDS011;43896;48.178;11.578;2023-08-06T04:15:45;3.55;;;1.77;;
58091;SDS011;43896;48.178;11.578;2023-08-06T04:18:10;3.15;;;1.65;;
58091;SDS011;43896;48.178;11.578;2023-08-06T04:20:42;4.10;;;1.67;;
58091;SDS011;43896;48.178;11.578;2023-08-06T04:23:09;3.50;;;1.65;;
58091;SDS011;43896;48.178;11.578;2023-08-06T04:25:34;3.10;;;1.70;;
58091;SDS011;43896;48.178;11.578;2023-08-06T04:28:00;4.32;;;1.88;;
58091;SDS011;43896;48.178;11.578;2023-08-06T04:30:25;3.83;;;1.80;;
58091;SDS011;43896;48.178;11.578;2023-08-06T04:32:50;3.28;;;1.58;;
58091;SDS011;43896;48.178;11.578;2023-08-06T04:35:16;3.47;;;1.70;;
58091;SDS011;43896;48.178;11.578;2023-08-06T04:37:41;3.90;;;1.80;;
58091;SDS011;43896;48.178;11.578;2023-08-06T04:40:07;3.05;;;1.60;;
58091;SDS011;43896;48.178;11.578;2023-08-06T04:42:33;3.92;;;1.60;;
58091;SDS011;43896;48.178;11.578;2023-08-06T04:45:01;3.85;;;1.88;;
58091;SDS011;43896;48.178;11.578;2023-08-06T04:47:26;3.80;;;1.65;;
58091;SDS011;43896;48.178;11.578;2023-08-06T04:49:52;4.43;;;1.60;;
58091;SDS011;43896;48.178;11.578;2023-08-06T04:52:18;3.63;;;1.50;;
58091;SDS011;43896;48.178;11.578;2023-08-06T04:54:43;3.13;;;1.65;;
58091;SDS011;43896;48.178;11.578;2023-08-06T04:57:09;4.55;;;1.73;;
58091;SDS011;43896;48.178;11.578;2023-08-06T04:59:34;3.80;;;1.90;;
58091;SDS011;43896;48.178;11.578;2023-08-06T05:02:00;5.07;;;1.90;;
58091;SDS011;43896;48.178;11.578;2023-08-06T05:04:25;4.13;;;1.50;;
58091;SDS011;43896;48.178;11.578;2023-08-06T05:06:51;4.78;;;1.65;;
58091;SDS011;43896;48.178;11.578;2023-08-06T05:09:16;3.30;;;1.60;;
58091;SDS011;43896;48.178;11.578;2023-08-06T05:11:42;2.80;;;1.40;;
58091;SDS011;43896;48.178;11.578;2023-08-06T05:14:07;4.72;;;1.67;;
58091;SDS011;43896;48.178;11.578;2023-08-06T05:16:33;4.10;;;1.83;;
58091;SDS011;43896;48.178;11.578;2023-08-06T05:18:58;4.20;;;1.60;;
58091;SDS011;43896;48.178;11.578;2023-08-06T05:21:23;2.65;;;1.40;;
58091;SDS011;43896;48.178;11.578;2023-08-06T05:23:49;4.85;;;1.63;;
58091;SDS011;43896;48.178;11.578;2023-08-06T05:26:14;3.95;;;1.70;;
58091;SDS011;43896;48.178;11.578;2023-08-06T05:28:43;4.15;;;1.70;;
58091;SDS011;43896;48.178;11.578;2023-08-06T05:31:09;3.13;;;1.58;;
58091;SDS011;43896;48.178;11.578;2023-08-06T05:33:34;3.45;;;1.60;;
58091;SDS011;43896;48.178;11.578;2023-08-06T05:35:59;4.05;;;1.80;;
58091;SDS011;43896;48.178;11.578;2023-08-06T05:38:25;3.03;;;1.50;;
58091;SDS011;43896;48.178;11.578;2023-08-06T05:40:50;2.88;;;1.50;;
58091;SDS011;43896;48.178;11.578;2023-08-06T05:43:15;3.13;;;1.50;;
58091;SDS011;43896;48.178;11.578;2023-08-06T05:45:44;4.00;;;1.60;;
58091;SDS011;43896;48.178;11.578;2023-08-06T05:48:11;3.28;;;1.60;;
58091;SDS011;43896;48.178;11.578;2023-08-06T05:50:37;2.97;;;1.60;;
58091;SDS011;43896;48.178;11.578;2023-08-06T05:53:02;5.13;;;1.70;;
58091;SDS011;43896;48.178;11.578;2023-08-06T05:55:27;3.00;;;1.60;;
58091;SDS011;43896;48.178;11.578;2023-08-06T05:57:53;4.00;;;1.33;;
58091;SDS011;43896;48.178;11.578;2023-08-06T06:00:18;3.10;;;1.45;;
58091;SDS011;43896;48.178;11.578;2023-08-06T06:02:44;3.58;;;1.40;;
58091;SDS011;43896;48.178;11.578;2023-08-06T06:05:10;3.83;;;1.65;;
58091;SDS011;43896;48.178;11.578;2023-08-06T06:07:36;3.50;;;1.60;;
58091;SDS011;43896;48.178;11.578;2023-08-06T06:10:01;2.95;;;1.50;;
58091;SDS011;43896;48.178;11.578;2023-08-06T06:12:26;2.83;;;1.50;;
58091;SDS011;43896;48.178;11.578;2023-08-06T06:14:52;4.47;;;1.67;;
58091;SDS011;43896;48.178;11.578;2023-08-06T06:17:17;3.47;;;1.50;;
58091;SDS011;43896;48.178;11.578;2023-08-06T06:19:42;3.83;;;1.58;;
58091;SDS011;43896;48.178;11.578;2023-08-06T06:22:08;3.17;;;1.40;;
58091;SDS011;43896;48.178;11.578;2023-08-06T06:24:33;3.13;;;1.50;;
58091;SDS011;43896;48.178;11.578;2023-08-06T06:26:59;3.75;;;1.52;;
58091;SDS011;43896;48.178;11.578;2023-08-06T06:29:25;2.53;;;1.35;;
58091;SDS011;43896;48.178;11.578;2023-08-06T06:31:50;3.67;;;1.45;;
58091;SDS011;43896;48.178;11.578;2023-08-06T06:34:15;3.80;;;1.38;;
58091;SDS011;43896;48.178;11.578;2023-08-06T06:36:41;2.45;;;1.20;;
58091;SDS011;43896;48.178;11.578;2023-08-06T06:39:06;2.95;;;1.33;;
58091;SDS011;43896;48.178;11.578;2023-08-06T06:41:33;2.70;;;1.30;;
58091;SDS011;43896;48.178;11.578;2023-08-06T06:43:58;3.97;;;1.42;;
58091;SDS011;43896;48.178;11.578;2023-08-06T06:46:23;3.17;;;1.05;;
58091;SDS011;43896;48.178;11.578;2023-08-06T06:48:49;2.83;;;1.30;;
58091;SDS011;43896;48.178;11.578;2023-08-06T06:51:14;4.07;;;1.30;;
58091;SDS011;43896;48.178;11.578;2023-08-06T06:53:39;2.45;;;1.17;;
58091;SDS011;43896;48.178;11.578;2023-08-06T06:56:05;2.88;;;1.30;;
58091;SDS011;43896;48.178;11.578;2023-08-06T06:58:31;4.25;;;1.30;;
58091;SDS011;43896;48.178;11.578;2023-08-06T07:00:57;3.20;;;1.33;;
58091;SDS011;43896;48.178;11.578;2023-08-06T07:03:22;2.33;;;1.00;;
58091;SDS011;43896;48.178;11.578;2023-08-06T07:05:49;2.67;;;1.00;;
58091;SDS011;43896;48.178;11.578;2023-08-06T07:08:15;3.15;;;0.88;;
58091;SDS011;43896;48.178;11.578;2023-08-06T07:10:40;2.92;;;1.00;;
58091;SDS011;43896;48.178;11.578;2023-08-06T07:13:06;2.22;;;0.88;;
58091;SDS011;43896;48.178;11.578;2023-08-06T07:15:32;2.70;;;0.90;;
58091;SDS011;43896;48.178;11.578;2023-08-06T07:17:57;2.03;;;0.80;;
58091;SDS011;43896;48.178;11.578;2023-08-06T07:20:23;3.92;;;0.93;;
58091;SDS011;43896;48.178;11.578;2023-08-06T07:22:48;3.60;;;1.00;;
58091;SDS011;43896;48.178;11.578;2023-08-06T07:25:15;1.63;;;0.52;;
58091;SDS011;43896;48.178;11.578;2023-08-06T07:27:40;2.97;;;0.75;;
58091;SDS011;43896;48.178;11.578;2023-08-06T07:30:06;2.28;;;0.70;;
58091;SDS011;43896;48.178;11.578;2023-08-06T07:32:32;2.20;;;0.75;;
58091;SDS011;43896;48.178;11.578;2023-08-06T07:34:57;2.50;;;0.60;;
58091;SDS011;43896;48.178;11.578;2023-08-06T07:37:25;2.90;;;0.75;;
58091;SDS011;43896;48.178;11.578;2023-08-06T07:39:53;4.25;;;0.60;;
58091;SDS011;43896;48.178;11.578;2023-08-06T07:42:18;3.63;;;0.80;;
58091;SDS011;43896;48.178;11.578;2023-08-06T07:44:50;1.40;;;0.50;;
58091;SDS011;43896;48.178;11.578;2023-08-06T07:47:21;2.95;;;0.75;;
58091;SDS011;43896;48.178;11.578;2023-08-06T07:49:47;1.52;;;0.60;;
58091;SDS011;43896;48.178;11.578;2023-08-06T07:52:13;1.88;;;0.60;;
58091;SDS011;43896;48.178;11.578;2023-08-06T07:54:38;2.00;;;0.50;;
58091;SDS011;43896;48.178;11.578;2023-08-06T07:57:04;2.13;;;0.60;;
58091;SDS011;43896;48.178;11.578;2023-08-06T07:59:29;1.45;;;0.60;;
58091;SDS011;43896;48.178;11.578;2023-08-06T08:01:55;2.70;;;0.70;;
58091;SDS011;43896;48.178;11.578;2023-08-06T08:04:20;1.90;;;0.60;;
58091;SDS011;43896;48.178;11.578;2023-08-06T08:06:46;1.08;;;0.50;;
58091;SDS011;43896;48.178;11.578;2023-08-06T08:09:12;1.88;;;0.60;;
58091;SDS011;43896;48.178;11.578;2023-08-06T08:11:38;2.35;;;0.60;;
58091;SDS011;43896;48.178;11.578;2023-08-06T08:14:04;3.30;;;0.70;;
58091;SDS011;43896;48.178;11.578;2023-08-06T08:16:29;1.10;;;0.50;;
58091;SDS011;43896;48.178;11.578;2023-08-06T08:18:54;1.85;;;0.55;;
58091;SDS011;43896;48.178;11.578;2023-08-06T08:21:20;2.20;;;0.75;;
58091;SDS011;43896;48.178;11.578;2023-08-06T08:23:45;2.17;;;0.70;;
58091;SDS011;43896;48.178;11.578;2023-08-06T08:26:11;1.73;;;0.50;;
58091;SDS011;43896;48.178;11.578;2023-08-06T08:28:37;2.00;;;0.60;;
58091;SDS011;43896;48.178;11.578;2023-08-06T08:31:02;1.05;;;0.50;;
58091;SDS011;43896;48.178;11.578;2023-08-06T08:33:27;1.75;;;0.65;;
58091;SDS011;43896;48.178;11.578;2023-08-06T08:35:53;1.10;;;0.40;;
58091;SDS011;43896;48.178;11.578;2023-08-06T08:38:18;1.85;;;0.50;;
58091;SDS011;43896;48.178;11.578;2023-08-06T08:40:45;1.13;;;0.40;;
58091;SDS011;43896;48.178;11.578;2023-08-06T08:43:14;2.67;;;0.82;;
58091;SDS011;43896;48.178;11.578;2023-08-06T08:45:40;0.80;;;0.40;;
58091;SDS011;43896;48.178;11.578;2023-08-06T08:48:08;1.75;;;0.52;;
58091;SDS011;43896;48.178;11.578;2023-08-06T08:50:37;1.30;;;0.38;;
58091;SDS011;43896;48.178;11.578;2023-08-06T08:53:03;1.70;;;0.43;;
58091;SDS011;43896;48.178;11.578;2023-08-06T08:55:30;1.73;;;0.47;;
58091;SDS011;43896;48.178;11.578;2023-08-06T08:57:56;1.55;;;0.40;;
58091;SDS011;43896;48.178;11.578;2023-08-06T09:00:22;1.60;;;0.40;;
58091;SDS011;43896;48.178;11.578;2023-08-06T09:02:47;1.55;;;0.30;;
58091;SDS011;43896;48.178;11.578;2023-08-06T09:05:13;0.65;;;0.30;;
58091;SDS011;43896;48.178;11.578;2023-08-06T09:07:43;1.38;;;0.30;;
58091;SDS011;43896;48.178;11.578;2023-08-06T09:10:13;1.45;;;0.40;;
58091;SDS011;43896;48.178;11.578;2023-08-06T09:12:42;1.52;;;0.30;;
58091;SDS011;43896;48.178;11.578;2023-08-06T09:15:09;0.55;;;0.30;;
58091;SDS011;43896;48.178;11.578;2023-08-06T09:17:35;1.05;;;0.20;;
58091;SDS011;43896;48.178;11.578;2023-08-06T09:20:08;1.83;;;0.30;;
58091;SDS011;43896;48.178;11.578;2023-08-06T09:22:37;1.50;;;0.30;;
58091;SDS011;43896;48.178;11.578;2023-08-06T09:25:02;1.83;;;0.40;;
58091;SDS011;43896;48.178;11.578;2023-08-06T09:27:29;0.90;;;0.20;;
58091;SDS011;43896;48.178;11.578;2023-08-06T09:29:54;1.10;;;0.30;;
58091;SDS011;43896;48.178;11.578;2023-08-06T09:32:20;2.03;;;0.30;;
58091;SDS011;43896;48.178;11.578;2023-08-06T09:34:45;0.73;;;0.10;;
58091;SDS011;43896;48.178;11.578;2023-08-06T09:37:11;0.20;;;0.10;;
58091;SDS011;43896;48.178;11.578;2023-08-06T09:39:38;1.38;;;0.22;;
58091;SDS011;43896;48.178;11.578;2023-08-06T09:42:05;1.83;;;0.13;;
58091;SDS011;43896;48.178;11.578;2023-08-06T09:44:31;2.58;;;0.20;;
58091;SDS011;43896;48.178;11.578;2023-08-06T09:46:58;0.60;;;0.10;;
58091;SDS011;43896;48.178;11.578;2023-08-06T09:49:25;1.38;;;0.30;;
58091;SDS011;43896;48.178;11.578;2023-08-06T09:52:04;1.00;;;0.20;;
58091;SDS011;43896;48.178;11.578;2023-08-06T09:54:30;5.65;;;0.25;;
58091;SDS011;43896;48.178;11.578;2023-08-06T09:56:58;1.23;;;0.20;;
58091;SDS011;43896;48.178;11.578;2023-08-06T09:59:25;1.02;;;0.20;;
58091;SDS011;43896;48.178;11.578;2023-08-06T10:01:51;1.50;;;0.20;;
58091;SDS011;43896;48.178;11.578;2023-08-06T10:04:19;1.35;;;0.20;;
58091;SDS011;43896;48.178;11.578;2023-08-06T10:06:48;0.85;;;0.28;;
58091;SDS011;43896;48.178;11.578;2023-08-06T10:09:14;0.30;;;0.13;;
58091;SDS011;43896;48.178;11.578;2023-08-06T10:11:39;0.73;;;0.20;;
58091;SDS011;43896;48.178;11.578;2023-08-06T10:14:09;0.93;;;0.10;;
58091;SDS011;43896;48.178;11.578;2023-08-06T10:16:39;0.38;;;0.20;;
58091;SDS011;43896;48.178;11.578;2023-08-06T10:19:06;2.35;;;0.20;;
58091;SDS011;43896;48.178;11.578;2023-08-06T10:21:34;0.73;;;0.13;;
58091;SDS011;43896;48.178;11.578;2023-08-06T10:23:59;1.00;;;0.10;;
58091;SDS011;43896;48.178;11.578;2023-08-06T10:26:26;0.90;;;0.30;;
58091;SDS011;43896;48.178;11.578;2023-08-06T10:28:52;1.65;;;0.20;;
58091;SDS011;43896;48.178;11.578;2023-08-06T10:31:18;0.25;;;0.20;;
58091;SDS011;43896;48.178;11.578;2023-08-06T10:33:45;0.85;;;0.10;;
58091;SDS011;43896;48.178;11.578;2023-08-06T10:36:11;0.60;;;0.10;;
58091;SDS011;43896;48.178;11.578;2023-08-06T10:38:46;0.57;;;0.10;;
58091;SDS011;43896;48.178;11.578;2023-08-06T10:41:27;1.92;;;0.10;;
58091;SDS011;43896;48.178;11.578;2023-08-06T10:44:06;1.85;;;0.20;;
58091;SDS011;43896;48.178;11.578;2023-08-06T10:46:35;0.30;;;0.10;;
58091;SDS011;43896;48.178;11.578;2023-08-06T10:49:03;0.30;;;0.10;;
58091;SDS011;43896;48.178;11.578;2023-08-06T10:51:29;0.52;;;0.28;;
58091;SDS011;43896;48.178;11.578;2023-08-06T10:53:55;0.80;;;0.10;;
58091;SDS011;43896;48.178;11.578;2023-08-06T10:56:23;0.30;;;0.10;;
58091;SDS011;43896;48.178;11.578;2023-08-06T10:58:51;0.82;;;0.20;;
58091;SDS011;43896;48.178;11.578;2023-08-06T11:01:17;0.38;;;0.10;;
58091;SDS011;43896;48.178;11.578;2023-08-06T11:03:43;0.63;;;0.17;;
58091;SDS011;43896;48.178;11.578;2023-08-06T11:06:10;0.32;;;0.10;;
58091;SDS011;43896;48.178;11.578;2023-08-06T11:08:36;0.95;;;0.15;;
58091;SDS011;43896;48.178;11.578;2023-08-06T11:11:12;0.25;;;0.10;;
58091;SDS011;43896;48.178;11.578;2023-08-06T11:13:46;0.65;;;0.10;;
58091;SDS011;43896;48.178;11.578;2023-08-06T11:16:15;0.22;;;0.10;;
58091;SDS011;43896;48.178;11.578;2023-08-06T11:18:46;0.88;;;0.10;;
58091;SDS011;43896;48.178;11.578;2023-08-06T11:21:12;0.50;;;0.20;;
58091;SDS011;43896;48.178;11.578;2023-08-06T11:23:38;0.65;;;0.10;;
58091;SDS011;43896;48.178;11.578;2023-08-06T11:26:05;0.75;;;0.10;;
58091;SDS011;43896;48.178;11.578;2023-08-06T11:28:30;0.25;;;0.10;;
58091;SDS011;43896;48.178;11.578;2023-08-06T11:30:55;0.88;;;0.10;;
58091;SDS011;43896;48.178;11.578;2023-08-06T11:33:23;0.45;;;0.10;;
58091;SDS011;43896;48.178;11.578;2023-08-06T11:35:50;0.45;;;0.00;;
58091;SDS011;43896;48.178;11.578;2023-08-06T11:38:16;2.58;;;0.10;;
58091;SDS011;43896;48.178;11.578;2023-08-06T11:40:43;1.00;;;0.20;;
58091;SDS011;43896;48.178;11.578;2023-08-06T11:43:10;1.27;;;0.13;;
58091;SDS011;43896;48.178;11.578;2023-08-06T11:45:36;0.88;;;0.10;;
58091;SDS011;43896;48.178;11.578;2023-08-06T11:48:01;2.17;;;0.15;;
58091;SDS011;43896;48.178;11.578;2023-08-06T11:50:28;0.20;;;0.08;;
58091;SDS011;43896;48.178;11.578;2023-08-06T11:52:55;0.45;;;0.10;;
58091;SDS011;43896;48.178;11.578;2023-08-06T11:55:23;1.75;;;0.20;;
58091;SDS011;43896;48.178;11.578;2023-08-06T11:57:50;2.15;;;0.10;;
58091;SDS011;43896;48.178;11.578;2023-08-06T12:00:15;0.17;;;0.10;;
58091;SDS011;43896;48.178;11.578;2023-08-06T12:02:43;1.15;;;0.15;;
58091;SDS011;43896;48.178;11.578;2023-08-06T12:07:37;1.05;;;0.10;;
58091;SDS011;43896;48.178;11.578;2023-08-06T12:10:03;0.57;;;0.20;;
58091;SDS011;43896;48.178;11.578;2023-08-06T12:12:29;1.75;;;0.20;;
58091;SDS011;43896;48.178;11.578;2023-08-06T12:14:55;0.30;;;0.13;;
58091;SDS011;43896;48.178;11.578;2023-08-06T12:17:21;1.52;;;0.10;;
58091;SDS011;43896;48.178;11.578;2023-08-06T12:19:47;1.00;;;0.20;;
58091;SDS011;43896;48.178;11.578;2023-08-06T12:22:14;0.20;;;0.10;;
58091;SDS011;43896;48.178;11.578;2023-08-06T12:24:42;0.80;;;0.20;;
58091;SDS011;43896;48.178;11.578;2023-08-06T12:27:09;1.23;;;0.20;;
58091;SDS011;43896;48.178;11.578;2023-08-06T12:29:35;0.25;;;0.10;;
58091;SDS011;43896;48.178;11.578;2023-08-06T12:32:03;0.13;;;0.05;;
58091;SDS011;43896;48.178;11.578;2023-08-06T12:34:28;0.47;;;0.10;;
58091;SDS011;43896;48.178;11.578;2023-08-06T12:36:54;0.95;;;0.10;;
58091;SDS011;43896;48.178;11.578;2023-08-06T12:39:19;0.20;;;0.10;;
58091;SDS011;43896;48.178;11.578;2023-08-06T12:41:44;0.70;;;0.20;;
58091;SDS011;43896;48.178;11.578;2023-08-06T12:44:11;0.75;;;0.10;;
58091;SDS011;43896;48.178;11.578;2023-08-06T12:46:37;0.45;;;0.10;;
58091;SDS011;43896;48.178;11.578;2023-08-06T12:49:02;1.10;;;0.20;;
58091;SDS011;43896;48.178;11.578;2023-08-06T12:51:28;0.88;;;0.28;;
58091;SDS011;43896;48.178;11.578;2023-08-06T12:53:53;0.65;;;0.20;;
58091;SDS011;43896;48.178;11.578;2023-08-06T12:56:18;2.65;;;0.20;;
58091;SDS011;43896;48.178;11.578;2023-08-06T12:58:44;0.80;;;0.28;;
58091;SDS011;43896;48.178;11.578;2023-08-06T13:01:09;1.23;;;0.30;;
58091;SDS011;43896;48.178;11.578;2023-08-06T13:03:34;0.82;;;0.30;;
58091;SDS011;43896;48.178;11.578;2023-08-06T13:06:00;0.30;;;0.10;;
58091;SDS011;43896;48.178;11.578;2023-08-06T13:08:25;0.50;;;0.08;;
58091;SDS011;43896;48.178;11.578;2023-08-06T13:10:51;1.70;;;0.20;;
58091;SDS011;43896;48.178;11.578;2023-08-06T13:13:16;0.10;;;0.10;;
58091;SDS011;43896;48.178;11.578;2023-08-06T13:15:42;0.40;;;0.30;;
58091;SDS011;43896;48.178;11.578;2023-08-06T13:18:07;0.50;;;0.20;;
58091;SDS011;43896;48.178;11.578;2023-08-06T13:20:32;0.68;;;0.20;;
58091;SDS011;43896;48.178;11.578;2023-08-06T13:22:58;2.08;;;0.20;;
58091;SDS011;43896;48.178;11.578;2023-08-06T13:25:26;1.33;;;0.10;;
58091;SDS011;43896;48.178;11.578;2023-08-06T13:27:52;1.10;;;0.30;;
58091;SDS011;43896;48.178;11.578;2023-08-06T13:30:17;0.63;;;0.20;;
58091;SDS011;43896;48.178;11.578;2023-08-06T13:32:43;0.47;;;0.20;;
58091;SDS011;43896;48.178;11.578;2023-08-06T13:35:09;0.10;;;0.10;;
58091;SDS011;43896;48.178;11.578;2023-08-06T13:37:34;0.80;;;0.20;;
58091;SDS011;43896;48.178;11.578;2023-08-06T13:40:00;0.57;;;0.20;;
58091;SDS011;43896;48.178;11.578;2023-08-06T13:42:25;1.58;;;0.20;;
58091;SDS011;43896;48.178;11.578;2023-08-06T13:44:50;0.28;;;0.17;;
58091;SDS011;43896;48.178;11.578;2023-08-06T13:47:16;0.77;;;0.10;;
58091;SDS011;43896;48.178;11.578;2023-08-06T13:49:41;0.52;;;0.10;;
58091;SDS011;43896;48.178;11.578;2023-08-06T13:52:06;0.45;;;0.10;;
58091;SDS011;43896;48.178;11.578;2023-08-06T13:54:32;0.10;;;0.10;;
58091;SDS011;43896;48.178;11.578;2023-08-06T13:56:57;0.22;;;0.20;;
58091;SDS011;43896;48.178;11.578;2023-08-06T13:59:22;0.57;;;0.10;;
58091;SDS011;43896;48.178;11.578;2023-08-06T14:01:49;0.80;;;0.20;;
58091;SDS011;43896;48.178;11.578;2023-08-06T14:04:15;0.20;;;0.10;;
58091;SDS011;43896;48.178;11.578;2023-08-06T14:06:40;0.45;;;0.10;;
58091;SDS011;43896;48.178;11.578;2023-08-06T14:09:05;0.55;;;0.17;;
58091;SDS011;43896;48.178;11.578;2023-08-06T14:11:31;0.38;;;0.10;;
58091;SDS011;43896;48.178;11.578;2023-08-06T14:13:56;0.60;;;0.20;;
58091;SDS011;43896;48.178;11.578;2023-08-06T14:16:21;0.17;;;0.17;;
58091;SDS011;43896;48.178;11.578;2023-08-06T14:18:47;0.73;;;0.20;;
58091;SDS011;43896;48.178;11.578;2023-08-06T14:21:13;1.45;;;0.20;;
58091;SDS011;43896;48.178;11.578;2023-08-06T14:23:39;0.20;;;0.10;;
58091;SDS011;43896;48.178;11.578;2023-08-06T14:26:06;0.30;;;0.10;;
58091;SDS011;43896;48.178;11.578;2023-08-06T14:28:31;1.02;;;0.38;;
58091;SDS011;43896;48.178;11.578;2023-08-06T14:30:57;0.20;;;0.10;;
58091;SDS011;43896;48.178;11.578;2023-08-06T14:33:22;1.27;;;0.30;;
58091;SDS011;43896;48.178;11.578;2023-08-06T14:35:47;0.40;;;0.20;;